sensor_id;sensor_type;location;lat;lon;timestamp;temperature;humidity
6210;DHT22;3138;52.550;13.148;2023-02-01T00:01:05;4.40;1.00
6210;DHT22;3138;52.550;13.148;2023-02-01T00:03:33;4.40;1.00
6210;DHT22;3138;52.550;13.148;2023-02-01T00:06:00;4.50;99.90
6210;DHT22;3138;52.550;13.148;2023-02-01T00:08:27;4.50;99.90
6210;DHT22;3138;52.550;13.148;2023-02-01T00:11:01;4.70;1.00
6210;DHT22;3138;52.550;13.148;2023-02-01T00:13:29;4.60;1.00
6210;DHT22;3138;52.550;13.148;2023-02-01T00:16:03;4.50;1.00
6210;DHT22;3138;52.550;13.148;2023-02-01T00:18:31;4.50;1.00
6210;DHT22;3138;52.550;13.148;2023-02-01T00:20:58;4.40;1.00
6210;DHT22;3138;52.550;13.148;2023-02-01T00:23:24;4.50;1.00
6210;DHT22;3138;52.550;13.148;2023-02-01T00:25:51;4.40;1.00
6210;DHT22;3138;52.550;13.148;2023-02-01T00:28:18;4.30;1.00
6210;DHT22;3138;52.550;13.148;2023-02-01T00:30:45;4.30;1.00
6210;DHT22;3138;52.550;13.148;2023-02-01T00:33:14;4.30;1.00
6210;DHT22;3138;52.550;13.148;2023-02-01T00:35:41;4.20;1.00
6210;DHT22;3138;52.550;13.148;2023-02-01T00:38:10;4.10;26.10
6210;DHT22;3138;52.550;13.148;2023-02-01T00:40:36;4.10;99.90
6210;DHT22;3138;52.550;13.148;2023-02-01T00:43:03;4.00;99.90
6210;DHT22;3138;52.550;13.148;2023-02-01T00:45:30;3.80;1.00
6210;DHT22;3138;52.550;13.148;2023-02-01T00:47:57;3.90;1.00
6210;DHT22;3138;52.550;13.148;2023-02-01T00:50:25;3.80;1.00
6210;DHT22;3138;52.550;13.148;2023-02-01T00:52:53;3.70;99.90
6210;DHT22;3138;52.550;13.148;2023-02-01T00:55:20;3.60;99.90
6210;DHT22;3138;52.550;13.148;2023-02-01T00:57:47;3.50;99.90
6210;DHT22;3138;52.550;13.148;2023-02-01T01:00:15;3.50;1.00
6210;DHT22;3138;52.550;13.148;2023-02-01T01:02:42;3.60;1.00
6210;DHT22;3138;52.550;13.148;2023-02-01T01:05:08;3.50;1.00
6210;DHT22;3138;52.550;13.148;2023-02-01T01:07:37;3.50;1.00
6210;DHT22;3138;52.550;13.148;2023-02-01T01:10:04;3.60;1.00
6210;DHT22;3138;52.550;13.148;2023-02-01T01:12:31;3.60;99.90
6210;DHT22;3138;52.550;13.148;2023-02-01T01:14:58;3.70;99.90
6210;DHT22;3138;52.550;13.148;2023-02-01T01:17:25;3.60;99.90
6210;DHT22;3138;52.550;13.148;2023-02-01T01:19:52;3.60;99.90
6210;DHT22;3138;52.550;13.148;2023-02-01T01:22:18;3.60;99.90
6210;DHT22;3138;52.550;13.148;2023-02-01T01:24:47;3.70;99.90
6210;DHT22;3138;52.550;13.148;2023-02-01T01:27:14;3.70;5.50
6210;DHT22;3138;52.550;13.148;2023-02-01T01:29:40;3.70;1.00
6210;DHT22;3138;52.550;13.148;2023-02-01T01:32:07;3.80;1.00
6210;DHT22;3138;52.550;13.148;2023-02-01T01:34:34;3.70;1.00
6210;DHT22;3138;52.550;13.148;2023-02-01T01:37:01;3.70;1.00
6210;DHT22;3138;52.550;13.148;2023-02-01T01:39:34;3.80;1.00
6210;DHT22;3138;52.550;13.148;2023-02-01T01:42:02;3.90;99.90
6210;DHT22;3138;52.550;13.148;2023-02-01T01:44:55;3.90;99.90
6210;DHT22;3138;52.550;13.148;2023-02-01T01:47:23;3.90;99.90
6210;DHT22;3138;52.550;13.148;2023-02-01T01:49:50;3.90;99.90
6210;DHT22;3138;52.550;13.148;2023-02-01T01:52:17;3.90;99.90
6210;DHT22;3138;52.550;13.148;2023-02-01T01:54:47;3.80;99.90
6210;DHT22;3138;52.550;13.148;2023-02-01T01:57:18;3.90;99.90
6210;DHT22;3138;52.550;13.148;2023-02-01T01:59:50;3.90;99.90
6210;DHT22;3138;52.550;13.148;2023-02-01T02:02:19;3.90;79.80
6210;DHT22;3138;52.550;13.148;2023-02-01T02:04:47;3.90;90.30
6210;DHT22;3138;52.550;13.148;2023-02-01T02:07:17;3.80;69.70
6210;DHT22;3138;52.550;13.148;2023-02-01T02:09:46;3.90;60.40
6210;DHT22;3138;52.550;13.148;2023-02-01T02:12:13;3.90;36.30
6210;DHT22;3138;52.550;13.148;2023-02-01T02:14:41;3.90;11.00
6210;DHT22;3138;52.550;13.148;2023-02-01T02:17:18;3.90;1.00
6210;DHT22;3138;52.550;13.148;2023-02-01T02:20:18;3.90;1.00
6210;DHT22;3138;52.550;13.148;2023-02-01T02:23:09;3.90;1.00
6210;DHT22;3138;52.550;13.148;2023-02-01T02:25:54;3.90;1.00
6210;DHT22;3138;52.550;13.148;2023-02-01T02:32:02;3.90;1.00
6210;DHT22;3138;52.550;13.148;2023-02-01T02:34:35;3.90;9.10
6210;DHT22;3138;52.550;13.148;2023-02-01T02:37:11;4.00;1.00
6210;DHT22;3138;52.550;13.148;2023-02-01T02:39:48;4.00;1.00
6210;DHT22;3138;52.550;13.148;2023-02-01T02:42:22;3.90;1.00
6210;DHT22;3138;52.550;13.148;2023-02-01T02:45:17;3.90;1.00
6210;DHT22;3138;52.550;13.148;2023-02-01T02:48:09;4.00;1.00
6210;DHT22;3138;52.550;13.148;2023-02-01T02:50:42;4.00;1.00
6210;DHT22;3138;52.550;13.148;2023-02-01T02:53:34;3.90;1.00
6210;DHT22;3138;52.550;13.148;2023-02-01T02:56:21;4.00;1.00
6210;DHT22;3138;52.550;13.148;2023-02-01T02:59:07;4.10;1.00
6210;DHT22;3138;52.550;13.148;2023-02-01T03:01:52;4.10;1.00
6210;DHT22;3138;52.550;13.148;2023-02-01T03:04:37;4.00;1.00
6210;DHT22;3138;52.550;13.148;2023-02-01T03:10:23;4.10;1.00
6210;DHT22;3138;52.550;13.148;2023-02-01T03:12:51;4.10;1.00
6210;DHT22;3138;52.550;13.148;2023-02-01T03:15:23;4.00;1.00
6210;DHT22;3138;52.550;13.148;2023-02-01T03:17:55;4.00;1.00
6210;DHT22;3138;52.550;13.148;2023-02-01T03:20:22;4.00;1.00
6210;DHT22;3138;52.550;13.148;2023-02-01T03:22:52;3.90;1.00
6210;DHT22;3138;52.550;13.148;2023-02-01T03:25:23;4.10;1.00
6210;DHT22;3138;52.550;13.148;2023-02-01T03:27:55;4.00;1.00
6210;DHT22;3138;52.550;13.148;2023-02-01T03:30:26;4.00;1.00
6210;DHT22;3138;52.550;13.148;2023-02-01T03:32:56;4.00;1.00
6210;DHT22;3138;52.550;13.148;2023-02-01T03:35:30;4.00;1.00
6210;DHT22;3138;52.550;13.148;2023-02-01T03:38:04;4.00;1.00
6210;DHT22;3138;52.550;13.148;2023-02-01T03:40:36;4.10;1.00
6210;DHT22;3138;52.550;13.148;2023-02-01T03:43:05;4.10;1.00
6210;DHT22;3138;52.550;13.148;2023-02-01T03:45:38;4.20;1.00
6210;DHT22;3138;52.550;13.148;2023-02-01T03:48:07;4.20;1.00
6210;DHT22;3138;52.550;13.148;2023-02-01T03:50:36;4.30;1.00
6210;DHT22;3138;52.550;13.148;2023-02-01T03:53:07;4.30;99.90
6210;DHT22;3138;52.550;13.148;2023-02-01T03:55:37;4.30;1.00
6210;DHT22;3138;52.550;13.148;2023-02-01T03:58:08;4.30;1.00
6210;DHT22;3138;52.550;13.148;2023-02-01T04:00:37;4.30;1.00
6210;DHT22;3138;52.550;13.148;2023-02-01T04:03:05;4.30;1.00
6210;DHT22;3138;52.550;13.148;2023-02-01T04:05:32;4.30;1.00
6210;DHT22;3138;52.550;13.148;2023-02-01T04:07:59;4.30;1.00
6210;DHT22;3138;52.550;13.148;2023-02-01T04:10:27;4.40;99.90
6210;DHT22;3138;52.550;13.148;2023-02-01T04:12:55;4.40;99.90
6210;DHT22;3138;52.550;13.148;2023-02-01T04:15:22;4.40;99.90
6210;DHT22;3138;52.550;13.148;2023-02-01T04:17:48;4.40;99.90
6210;DHT22;3138;52.550;13.148;2023-02-01T04:20:16;4.50;99.90
6210;DHT22;3138;52.550;13.148;2023-02-01T04:22:43;4.60;99.90
6210;DHT22;3138;52.550;13.148;2023-02-01T04:25:11;4.60;99.90
6210;DHT22;3138;52.550;13.148;2023-02-01T04:27:38;4.60;99.90
6210;DHT22;3138;52.550;13.148;2023-02-01T04:30:07;4.60;99.90
6210;DHT22;3138;52.550;13.148;2023-02-01T04:32:35;4.60;99.90
6210;DHT22;3138;52.550;13.148;2023-02-01T04:35:02;4.60;99.90
6210;DHT22;3138;52.550;13.148;2023-02-01T04:37:29;4.60;99.90
6210;DHT22;3138;52.550;13.148;2023-02-01T04:39:57;4.70;99.90
6210;DHT22;3138;52.550;13.148;2023-02-01T04:42:24;4.70;99.90
6210;DHT22;3138;52.550;13.148;2023-02-01T04:44:51;4.70;99.90
6210;DHT22;3138;52.550;13.148;2023-02-01T04:47:19;4.70;99.90
6210;DHT22;3138;52.550;13.148;2023-02-01T04:49:46;4.80;99.90
6210;DHT22;3138;52.550;13.148;2023-02-01T04:52:13;4.70;99.90
6210;DHT22;3138;52.550;13.148;2023-02-01T04:54:39;4.80;99.90
6210;DHT22;3138;52.550;13.148;2023-02-01T04:57:06;4.80;99.90
6210;DHT22;3138;52.550;13.148;2023-02-01T04:59:33;4.80;99.90
6210;DHT22;3138;52.550;13.148;2023-02-01T05:02:00;4.80;99.90
6210;DHT22;3138;52.550;13.148;2023-02-01T05:04:28;4.80;99.90
6210;DHT22;3138;52.550;13.148;2023-02-01T05:06:55;4.80;99.90
6210;DHT22;3138;52.550;13.148;2023-02-01T05:09:22;4.80;99.90
6210;DHT22;3138;52.550;13.148;2023-02-01T05:11:49;4.80;99.90
6210;DHT22;3138;52.550;13.148;2023-02-01T05:14:33;4.80;99.90
6210;DHT22;3138;52.550;13.148;2023-02-01T05:17:00;4.90;28.90
6210;DHT22;3138;52.550;13.148;2023-02-01T05:19:28;4.90;1.00
6210;DHT22;3138;52.550;13.148;2023-02-01T05:21:55;5.00;1.00
6210;DHT22;3138;52.550;13.148;2023-02-01T05:24:22;4.90;1.00
6210;DHT22;3138;52.550;13.148;2023-02-01T05:26:49;4.90;1.00
6210;DHT22;3138;52.550;13.148;2023-02-01T05:29:16;4.90;1.00
6210;DHT22;3138;52.550;13.148;2023-02-01T05:31:44;5.00;1.00
6210;DHT22;3138;52.550;13.148;2023-02-01T05:34:11;4.90;1.00
6210;DHT22;3138;52.550;13.148;2023-02-01T05:36:40;4.90;1.00
6210;DHT22;3138;52.550;13.148;2023-02-01T05:39:07;4.90;1.00
6210;DHT22;3138;52.550;13.148;2023-02-01T05:41:34;5.00;1.00
6210;DHT22;3138;52.550;13.148;2023-02-01T05:44:00;5.00;1.00
6210;DHT22;3138;52.550;13.148;2023-02-01T05:46:28;5.00;1.00
6210;DHT22;3138;52.550;13.148;2023-02-01T05:48:54;5.00;1.00
6210;DHT22;3138;52.550;13.148;2023-02-01T05:51:21;5.00;1.00
6210;DHT22;3138;52.550;13.148;2023-02-01T05:53:49;5.00;1.00
6210;DHT22;3138;52.550;13.148;2023-02-01T05:56:16;5.00;1.00
6210;DHT22;3138;52.550;13.148;2023-02-01T05:58:43;5.00;1.00
6210;DHT22;3138;52.550;13.148;2023-02-01T06:01:10;4.90;1.00
6210;DHT22;3138;52.550;13.148;2023-02-01T06:03:37;4.90;1.00
6210;DHT22;3138;52.550;13.148;2023-02-01T06:06:04;4.90;29.50
6210;DHT22;3138;52.550;13.148;2023-02-01T06:08:31;4.90;56.70
6210;DHT22;3138;52.550;13.148;2023-02-01T06:11:00;4.90;74.30
6210;DHT22;3138;52.550;13.148;2023-02-01T06:13:28;4.80;99.90
6210;DHT22;3138;52.550;13.148;2023-02-01T06:15:54;4.80;99.90
6210;DHT22;3138;52.550;13.148;2023-02-01T06:18:22;4.80;99.90
6210;DHT22;3138;52.550;13.148;2023-02-01T06:20:52;4.80;99.90
6210;DHT22;3138;52.550;13.148;2023-02-01T06:23:19;4.80;99.90
6210;DHT22;3138;52.550;13.148;2023-02-01T06:25:50;4.80;99.90
6210;DHT22;3138;52.550;13.148;2023-02-01T06:28:18;4.70;99.90
6210;DHT22;3138;52.550;13.148;2023-02-01T06:30:46;4.70;1.00
6210;DHT22;3138;52.550;13.148;2023-02-01T06:33:13;4.70;1.00
6210;DHT22;3138;52.550;13.148;2023-02-01T06:35:41;4.70;1.00
6210;DHT22;3138;52.550;13.148;2023-02-01T06:38:09;4.70;1.00
6210;DHT22;3138;52.550;13.148;2023-02-01T06:40:36;4.70;1.00
6210;DHT22;3138;52.550;13.148;2023-02-01T06:43:03;4.70;99.90
6210;DHT22;3138;52.550;13.148;2023-02-01T06:45:31;4.70;99.90
6210;DHT22;3138;52.550;13.148;2023-02-01T06:47:59;4.70;99.90
6210;DHT22;3138;52.550;13.148;2023-02-01T06:50:26;4.70;99.90
6210;DHT22;3138;52.550;13.148;2023-02-01T06:52:53;4.70;77.10
6210;DHT22;3138;52.550;13.148;2023-02-01T06:55:20;4.80;1.00
6210;DHT22;3138;52.550;13.148;2023-02-01T06:57:47;4.80;1.00
6210;DHT22;3138;52.550;13.148;2023-02-01T07:00:14;4.70;1.00
6210;DHT22;3138;52.550;13.148;2023-02-01T07:02:42;4.80;1.00
6210;DHT22;3138;52.550;13.148;2023-02-01T07:05:09;4.70;49.60
6210;DHT22;3138;52.550;13.148;2023-02-01T07:07:36;4.70;99.90
6210;DHT22;3138;52.550;13.148;2023-02-01T07:10:03;4.70;99.90
6210;DHT22;3138;52.550;13.148;2023-02-01T07:12:30;4.70;99.90
6210;DHT22;3138;52.550;13.148;2023-02-01T07:14:57;4.70;99.90
6210;DHT22;3138;52.550;13.148;2023-02-01T07:17:24;4.70;99.90
6210;DHT22;3138;52.550;13.148;2023-02-01T07:19:52;4.70;1.00
6210;DHT22;3138;52.550;13.148;2023-02-01T07:22:19;4.70;1.00
6210;DHT22;3138;52.550;13.148;2023-02-01T07:24:46;4.70;1.00
6210;DHT22;3138;52.550;13.148;2023-02-01T07:27:12;4.70;1.00
6210;DHT22;3138;52.550;13.148;2023-02-01T07:29:39;4.80;1.00
6210;DHT22;3138;52.550;13.148;2023-02-01T07:32:06;4.80;1.00
6210;DHT22;3138;52.550;13.148;2023-02-01T07:34:35;4.70;62.70
6210;DHT22;3138;52.550;13.148;2023-02-01T07:37:03;4.70;1.00
6210;DHT22;3138;52.550;13.148;2023-02-01T07:39:36;4.60;1.00
6210;DHT22;3138;52.550;13.148;2023-02-01T07:42:03;4.40;99.90
6210;DHT22;3138;52.550;13.148;2023-02-01T07:44:30;4.30;1.00
6210;DHT22;3138;52.550;13.148;2023-02-01T07:46:56;4.30;99.90
6210;DHT22;3138;52.550;13.148;2023-02-01T07:49:23;4.30;99.90
6210;DHT22;3138;52.550;13.148;2023-02-01T07:51:50;4.20;1.00
6210;DHT22;3138;52.550;13.148;2023-02-01T07:54:19;4.10;1.00
6210;DHT22;3138;52.550;13.148;2023-02-01T07:56:46;4.00;99.90
6210;DHT22;3138;52.550;13.148;2023-02-01T07:59:12;4.00;99.90
6210;DHT22;3138;52.550;13.148;2023-02-01T08:01:40;4.00;1.00
6210;DHT22;3138;52.550;13.148;2023-02-01T08:04:07;3.90;1.00
6210;DHT22;3138;52.550;13.148;2023-02-01T08:06:35;4.00;1.00
6210;DHT22;3138;52.550;13.148;2023-02-01T08:09:03;3.90;99.90
6210;DHT22;3138;52.550;13.148;2023-02-01T08:11:31;3.90;99.90
6210;DHT22;3138;52.550;13.148;2023-02-01T08:13:59;3.90;99.90
6210;DHT22;3138;52.550;13.148;2023-02-01T08:16:26;3.80;99.90
6210;DHT22;3138;52.550;13.148;2023-02-01T08:18:53;3.90;1.00
6210;DHT22;3138;52.550;13.148;2023-02-01T08:21:22;3.90;1.00
6210;DHT22;3138;52.550;13.148;2023-02-01T08:23:49;3.90;1.00
6210;DHT22;3138;52.550;13.148;2023-02-01T08:26:18;3.90;1.00
6210;DHT22;3138;52.550;13.148;2023-02-01T08:28:48;3.90;1.00
6210;DHT22;3138;52.550;13.148;2023-02-01T08:31:17;3.90;1.00
6210;DHT22;3138;52.550;13.148;2023-02-01T08:33:48;3.90;29.90
6210;DHT22;3138;52.550;13.148;2023-02-01T08:36:16;3.80;77.50
6210;DHT22;3138;52.550;13.148;2023-02-01T08:38:43;3.90;99.20
6210;DHT22;3138;52.550;13.148;2023-02-01T08:41:11;3.90;99.90
6210;DHT22;3138;52.550;13.148;2023-02-01T08:43:39;3.90;99.90
6210;DHT22;3138;52.550;13.148;2023-02-01T08:46:08;3.90;99.90
6210;DHT22;3138;52.550;13.148;2023-02-01T08:48:35;3.90;99.90
6210;DHT22;3138;52.550;13.148;2023-02-01T08:51:03;3.90;99.90
6210;DHT22;3138;52.550;13.148;2023-02-01T08:53:30;3.90;99.90
6210;DHT22;3138;52.550;13.148;2023-02-01T08:55:57;3.90;99.90
6210;DHT22;3138;52.550;13.148;2023-02-01T08:58:24;3.90;99.90
6210;DHT22;3138;52.550;13.148;2023-02-01T09:00:50;3.90;99.90
6210;DHT22;3138;52.550;13.148;2023-02-01T09:03:19;4.00;99.90
6210;DHT22;3138;52.550;13.148;2023-02-01T09:05:46;4.00;37.80
6210;DHT22;3138;52.550;13.148;2023-02-01T09:08:13;4.10;1.00
6210;DHT22;3138;52.550;13.148;2023-02-01T09:10:41;4.20;1.00
6210;DHT22;3138;52.550;13.148;2023-02-01T09:13:08;4.20;1.00
6210;DHT22;3138;52.550;13.148;2023-02-01T09:15:37;4.30;1.00
6210;DHT22;3138;52.550;13.148;2023-02-01T09:18:04;4.20;1.00
6210;DHT22;3138;52.550;13.148;2023-02-01T09:20:32;4.20;1.00
6210;DHT22;3138;52.550;13.148;2023-02-01T09:22:59;4.20;1.00
6210;DHT22;3138;52.550;13.148;2023-02-01T09:25:26;4.30;1.00
6210;DHT22;3138;52.550;13.148;2023-02-01T09:27:53;4.30;1.00
6210;DHT22;3138;52.550;13.148;2023-02-01T09:30:20;4.30;99.90
6210;DHT22;3138;52.550;13.148;2023-02-01T09:32:47;4.20;99.90
6210;DHT22;3138;52.550;13.148;2023-02-01T09:35:14;4.30;99.90
6210;DHT22;3138;52.550;13.148;2023-02-01T09:37:43;4.30;99.90
6210;DHT22;3138;52.550;13.148;2023-02-01T09:40:12;4.20;99.90
6210;DHT22;3138;52.550;13.148;2023-02-01T09:42:52;4.20;99.90
6210;DHT22;3138;52.550;13.148;2023-02-01T09:45:29;4.30;43.80
6210;DHT22;3138;52.550;13.148;2023-02-01T09:48:03;4.20;73.40
6210;DHT22;3138;52.550;13.148;2023-02-01T09:50:34;4.20;99.90
6210;DHT22;3138;52.550;13.148;2023-02-01T09:53:09;4.20;99.90
6210;DHT22;3138;52.550;13.148;2023-02-01T09:55:39;4.20;99.90
6210;DHT22;3138;52.550;13.148;2023-02-01T09:58:11;4.10;99.90
6210;DHT22;3138;52.550;13.148;2023-02-01T10:00:39;4.20;99.90
6210;DHT22;3138;52.550;13.148;2023-02-01T10:03:11;4.20;1.00
6210;DHT22;3138;52.550;13.148;2023-02-01T10:06:00;4.20;1.00
6210;DHT22;3138;52.550;13.148;2023-02-01T10:08:40;4.30;1.00
6210;DHT22;3138;52.550;13.148;2023-02-01T10:11:20;4.30;1.00
6210;DHT22;3138;52.550;13.148;2023-02-01T10:13:57;4.30;1.00
6210;DHT22;3138;52.550;13.148;2023-02-01T10:16:36;4.30;99.90
6210;DHT22;3138;52.550;13.148;2023-02-01T10:19:33;4.30;99.90
6210;DHT22;3138;52.550;13.148;2023-02-01T10:22:05;4.30;99.90
6210;DHT22;3138;52.550;13.148;2023-02-01T10:24:39;4.40;99.90
6210;DHT22;3138;52.550;13.148;2023-02-01T10:27:13;4.50;99.90
6210;DHT22;3138;52.550;13.148;2023-02-01T10:29:42;4.60;90.90
6210;DHT22;3138;52.550;13.148;2023-02-01T10:32:13;4.60;1.00
6210;DHT22;3138;52.550;13.148;2023-02-01T10:34:42;4.50;1.00
6210;DHT22;3138;52.550;13.148;2023-02-01T10:37:24;4.40;16.80
6210;DHT22;3138;52.550;13.148;2023-02-01T10:39:55;4.30;99.90
6210;DHT22;3138;52.550;13.148;2023-02-01T10:42:26;4.30;1.00
6210;DHT22;3138;52.550;13.148;2023-02-01T10:44:55;4.30;1.00
6210;DHT22;3138;52.550;13.148;2023-02-01T10:47:23;4.30;1.00
6210;DHT22;3138;52.550;13.148;2023-02-01T10:49:55;4.30;1.00
6210;DHT22;3138;52.550;13.148;2023-02-01T10:52:33;4.30;1.00
6210;DHT22;3138;52.550;13.148;2023-02-01T10:55:27;4.40;1.00
6210;DHT22;3138;52.550;13.148;2023-02-01T10:57:59;4.50;2.90
6210;DHT22;3138;52.550;13.148;2023-02-01T11:00:26;4.60;18.30
6210;DHT22;3138;52.550;13.148;2023-02-01T11:02:54;4.60;1.00
6210;DHT22;3138;52.550;13.148;2023-02-01T11:05:22;4.70;1.00
6210;DHT22;3138;52.550;13.148;2023-02-01T11:07:51;4.80;1.00
6210;DHT22;3138;52.550;13.148;2023-02-01T11:10:38;4.80;1.00
6210;DHT22;3138;52.550;13.148;2023-02-01T11:13:14;4.90;1.00
6210;DHT22;3138;52.550;13.148;2023-02-01T11:15:44;5.20;1.00
6210;DHT22;3138;52.550;13.148;2023-02-01T11:18:17;5.20;99.90
6210;DHT22;3138;52.550;13.148;2023-02-01T11:20:46;5.30;99.90
6210;DHT22;3138;52.550;13.148;2023-02-01T11:23:16;5.50;99.90
6210;DHT22;3138;52.550;13.148;2023-02-01T11:25:53;5.60;1.00
6210;DHT22;3138;52.550;13.148;2023-02-01T11:28:23;5.80;1.00
6210;DHT22;3138;52.550;13.148;2023-02-01T11:30:54;6.00;99.90
6210;DHT22;3138;52.550;13.148;2023-02-01T11:33:26;5.80;31.00
6210;DHT22;3138;52.550;13.148;2023-02-01T11:35:56;5.80;88.20
6210;DHT22;3138;52.550;13.148;2023-02-01T11:38:28;5.90;1.00
6210;DHT22;3138;52.550;13.148;2023-02-01T11:41:11;5.90;1.00
6210;DHT22;3138;52.550;13.148;2023-02-01T11:43:51;5.90;99.90
6210;DHT22;3138;52.550;13.148;2023-02-01T11:46:19;6.10;57.90
6210;DHT22;3138;52.550;13.148;2023-02-01T11:48:51;6.30;99.90
6210;DHT22;3138;52.550;13.148;2023-02-01T11:54:21;6.40;1.00
6210;DHT22;3138;52.550;13.148;2023-02-01T11:57:03;6.60;1.00
6210;DHT22;3138;52.550;13.148;2023-02-01T11:59:53;6.50;99.90
6210;DHT22;3138;52.550;13.148;2023-02-01T12:02:46;6.30;1.00
6210;DHT22;3138;52.550;13.148;2023-02-01T12:05:25;6.40;1.00
6210;DHT22;3138;52.550;13.148;2023-02-01T12:08:07;6.40;1.00
6210;DHT22;3138;52.550;13.148;2023-02-01T12:10:46;6.40;99.90
6210;DHT22;3138;52.550;13.148;2023-02-01T12:13:29;6.40;99.90
6210;DHT22;3138;52.550;13.148;2023-02-01T12:16:09;6.40;99.90
6210;DHT22;3138;52.550;13.148;2023-02-01T12:19:01;6.30;1.00
6210;DHT22;3138;52.550;13.148;2023-02-01T12:21:44;6.20;1.00
6210;DHT22;3138;52.550;13.148;2023-02-01T12:24:32;6.10;1.00
6210;DHT22;3138;52.550;13.148;2023-02-01T12:27:15;6.10;99.90
6210;DHT22;3138;52.550;13.148;2023-02-01T12:29:57;6.10;99.90
6210;DHT22;3138;52.550;13.148;2023-02-01T12:32:45;6.10;99.90
6210;DHT22;3138;52.550;13.148;2023-02-01T12:41:48;6.30;99.90
6210;DHT22;3138;52.550;13.148;2023-02-01T12:44:31;6.40;99.90
6210;DHT22;3138;52.550;13.148;2023-02-01T12:47:05;6.40;99.90
6210;DHT22;3138;52.550;13.148;2023-02-01T12:49:43;6.40;99.90
6210;DHT22;3138;52.550;13.148;2023-02-01T12:52:15;6.40;12.60
6210;DHT22;3138;52.550;13.148;2023-02-01T12:54:46;6.40;4.30
6210;DHT22;3138;52.550;13.148;2023-02-01T12:57:18;6.40;1.00
6210;DHT22;3138;52.550;13.148;2023-02-01T12:59:52;6.40;1.00
6210;DHT22;3138;52.550;13.148;2023-02-01T13:02:32;6.50;1.00
6210;DHT22;3138;52.550;13.148;2023-02-01T13:05:12;6.40;1.00
6210;DHT22;3138;52.550;13.148;2023-02-01T13:07:45;6.40;1.00
6210;DHT22;3138;52.550;13.148;2023-02-01T13:10:18;6.40;1.00
6210;DHT22;3138;52.550;13.148;2023-02-01T13:12:51;6.30;1.00
6210;DHT22;3138;52.550;13.148;2023-02-01T13:15:23;6.30;1.00
6210;DHT22;3138;52.550;13.148;2023-02-01T13:17:55;6.30;1.00
6210;DHT22;3138;52.550;13.148;2023-02-01T13:20:28;6.30;1.00
6210;DHT22;3138;52.550;13.148;2023-02-01T13:23:00;6.20;1.00
6210;DHT22;3138;52.550;13.148;2023-02-01T13:25:34;6.20;1.00
6210;DHT22;3138;52.550;13.148;2023-02-01T13:28:05;6.20;1.00
6210;DHT22;3138;52.550;13.148;2023-02-01T13:30:45;6.20;1.00
6210;DHT22;3138;52.550;13.148;2023-02-01T13:33:39;6.30;1.00
6210;DHT22;3138;52.550;13.148;2023-02-01T13:36:28;6.30;1.00
6210;DHT22;3138;52.550;13.148;2023-02-01T13:42:01;6.40;1.00
6210;DHT22;3138;52.550;13.148;2023-02-01T13:44:31;6.40;1.00
6210;DHT22;3138;52.550;13.148;2023-02-01T13:47:01;6.40;1.00
6210;DHT22;3138;52.550;13.148;2023-02-01T13:49:36;6.40;1.00
6210;DHT22;3138;52.550;13.148;2023-02-01T13:52:04;6.40;1.00
6210;DHT22;3138;52.550;13.148;2023-02-01T13:54:33;6.40;1.00
6210;DHT22;3138;52.550;13.148;2023-02-01T13:57:01;6.40;99.90
6210;DHT22;3138;52.550;13.148;2023-02-01T14:02:48;6.30;1.00
6210;DHT22;3138;52.550;13.148;2023-02-01T14:08:39;5.50;39.10
6210;DHT22;3138;52.550;13.148;2023-02-01T14:11:07;5.50;1.00
6210;DHT22;3138;52.550;13.148;2023-02-01T14:13:53;5.50;1.00
6210;DHT22;3138;52.550;13.148;2023-02-01T14:16:20;5.60;1.00
6210;DHT22;3138;52.550;13.148;2023-02-01T14:18:59;5.60;51.50
6210;DHT22;3138;52.550;13.148;2023-02-01T14:21:29;5.60;1.00
6210;DHT22;3138;52.550;13.148;2023-02-01T14:24:04;5.70;1.00
6210;DHT22;3138;52.550;13.148;2023-02-01T14:26:43;5.70;1.00
6210;DHT22;3138;52.550;13.148;2023-02-01T14:29:22;5.80;1.00
6210;DHT22;3138;52.550;13.148;2023-02-01T14:31:58;5.80;1.00
6210;DHT22;3138;52.550;13.148;2023-02-01T14:34:36;5.80;99.90
6210;DHT22;3138;52.550;13.148;2023-02-01T14:37:11;5.80;99.90
6210;DHT22;3138;52.550;13.148;2023-02-01T14:39:52;5.80;99.90
6210;DHT22;3138;52.550;13.148;2023-02-01T14:42:24;5.80;99.90
6210;DHT22;3138;52.550;13.148;2023-02-01T14:44:52;5.80;99.90
6210;DHT22;3138;52.550;13.148;2023-02-01T14:47:34;5.80;99.90
6210;DHT22;3138;52.550;13.148;2023-02-01T14:50:25;5.80;99.90
6210;DHT22;3138;52.550;13.148;2023-02-01T14:53:13;5.80;1.10
6210;DHT22;3138;52.550;13.148;2023-02-01T14:55:44;5.70;98.10
6210;DHT22;3138;52.550;13.148;2023-02-01T14:58:20;5.70;49.80
6210;DHT22;3138;52.550;13.148;2023-02-01T15:00:51;5.80;1.00
6210;DHT22;3138;52.550;13.148;2023-02-01T15:03:34;5.50;1.00
6210;DHT22;3138;52.550;13.148;2023-02-01T15:06:13;5.20;99.90
6210;DHT22;3138;52.550;13.148;2023-02-01T15:08:48;4.90;1.00
6210;DHT22;3138;52.550;13.148;2023-02-01T15:11:16;4.80;99.90
6210;DHT22;3138;52.550;13.148;2023-02-01T15:13:48;4.60;99.90
6210;DHT22;3138;52.550;13.148;2023-02-01T15:16:17;4.50;1.00
6210;DHT22;3138;52.550;13.148;2023-02-01T15:18:44;4.40;1.00
6210;DHT22;3138;52.550;13.148;2023-02-01T15:21:17;4.40;99.90
6210;DHT22;3138;52.550;13.148;2023-02-01T15:23:44;4.30;99.90
6210;DHT22;3138;52.550;13.148;2023-02-01T15:26:26;4.20;1.00
6210;DHT22;3138;52.550;13.148;2023-02-01T15:28:53;4.00;99.90
6210;DHT22;3138;52.550;13.148;2023-02-01T15:31:34;3.90;99.90
6210;DHT22;3138;52.550;13.148;2023-02-01T15:34:01;3.80;1.00
6210;DHT22;3138;52.550;13.148;2023-02-01T15:36:27;3.80;1.00
6210;DHT22;3138;52.550;13.148;2023-02-01T15:39:15;3.70;99.70
6210;DHT22;3138;52.550;13.148;2023-02-01T15:41:47;3.70;99.90
6210;DHT22;3138;52.550;13.148;2023-02-01T15:44:19;3.70;1.00
6210;DHT22;3138;52.550;13.148;2023-02-01T15:46:49;3.60;1.00
6210;DHT22;3138;52.550;13.148;2023-02-01T15:49:20;3.50;1.00
6210;DHT22;3138;52.550;13.148;2023-02-01T15:51:50;3.40;1.00
6210;DHT22;3138;52.550;13.148;2023-02-01T15:54:20;3.10;1.00
6210;DHT22;3138;52.550;13.148;2023-02-01T15:56:52;2.80;1.00
6210;DHT22;3138;52.550;13.148;2023-02-01T15:59:21;2.60;1.00
6210;DHT22;3138;52.550;13.148;2023-02-01T16:01:49;2.40;1.00
6210;DHT22;3138;52.550;13.148;2023-02-01T16:04:19;2.10;1.00
6210;DHT22;3138;52.550;13.148;2023-02-01T16:06:50;2.00;1.00
6210;DHT22;3138;52.550;13.148;2023-02-01T16:09:19;1.90;72.50
6210;DHT22;3138;52.550;13.148;2023-02-01T16:11:52;1.90;99.90
6210;DHT22;3138;52.550;13.148;2023-02-01T16:14:20;1.90;99.90
6210;DHT22;3138;52.550;13.148;2023-02-01T16:16:47;1.90;99.90
6210;DHT22;3138;52.550;13.148;2023-02-01T16:19:14;1.90;99.90
6210;DHT22;3138;52.550;13.148;2023-02-01T16:21:41;1.90;99.90
6210;DHT22;3138;52.550;13.148;2023-02-01T16:24:08;2.00;99.90
6210;DHT22;3138;52.550;13.148;2023-02-01T16:26:34;2.10;99.90
6210;DHT22;3138;52.550;13.148;2023-02-01T16:29:04;2.10;99.90
6210;DHT22;3138;52.550;13.148;2023-02-01T16:31:34;2.20;99.90
6210;DHT22;3138;52.550;13.148;2023-02-01T16:34:02;2.20;99.90
6210;DHT22;3138;52.550;13.148;2023-02-01T16:36:29;2.30;99.90
6210;DHT22;3138;52.550;13.148;2023-02-01T16:38:56;2.30;99.90
6210;DHT22;3138;52.550;13.148;2023-02-01T16:41:24;2.40;99.90
6210;DHT22;3138;52.550;13.148;2023-02-01T16:43:52;2.50;99.90
6210;DHT22;3138;52.550;13.148;2023-02-01T16:46:22;2.50;99.90
6210;DHT22;3138;52.550;13.148;2023-02-01T16:48:53;2.60;99.90
6210;DHT22;3138;52.550;13.148;2023-02-01T16:51:21;2.60;99.90
6210;DHT22;3138;52.550;13.148;2023-02-01T16:53:48;2.60;99.90
6210;DHT22;3138;52.550;13.148;2023-02-01T16:56:17;2.60;99.90
6210;DHT22;3138;52.550;13.148;2023-02-01T16:58:45;2.70;99.90
6210;DHT22;3138;52.550;13.148;2023-02-01T17:01:13;2.70;99.90